Impacts TAF Board
For situational awareness. Not to be used for flight planning purposes.
IDs:

KEWR - Newark Intl, NJ, US

Issued at 0843 UTC 21 Oct 2018
Updated at 0851 UTC 21 Oct 2018
Potential Impact None Slight Moderate High
Time0822Z 21/09Z 21/10Z 21/11Z 21/12Z 21/13Z 21/14Z 21/15Z 21/16Z 21/17Z 21/18Z 21/19Z 21/20Z 21/21Z>>
Type OBS PRVL
  [TEMP]  
PRVL
  [TEMP]  
PRVL
  [TEMP]  
PRVL
  [TEMP]  
PRVL PRVL PRVL PRVL PRVL PRVL PRVL PRVL PRVL
VIS 10 >6 >6 >6 >6 >6 >6 >6 >6 >6 >6 >6 >6 >6
CIG 30 60
  [30]  
60
  [30]  
60
  [30]  
60
  [30]  
60 -- -- -- -- -- -- -- --
Cover OVC BKN
  [BKN]  
BKN
  [BKN]  
BKN
  [BKN]  
BKN
  [BKN]  
BKN SCT SCT SCT SCT SCT SCT SCT SCT
FltCat MVFR VFR
  [MVFR]  
VFR
  [MVFR]  
VFR
  [MVFR]  
VFR
  [MVFR]  
VFR VFR VFR VFR VFR VFR VFR VFR VFR
WX -RA --
  [--]  
--
  [--]  
--
  [--]  
--
  [--]  
-- -- -- -- -- -- -- -- --
WDir 330 320
[320]
320
[320]
320
[320]
320
[320]
320 330 330 330 330 330 330 330 330
WSpd 15 18
  [18]  
18
  [18]  
18
  [18]  
18
  [18]  
18 22 22 22 22 22 22 22 22
WGst 21 25
  [25]  
25
  [25]  
25
  [25]  
25
  [25]  
25 33 33 33 33 33 33 33 33
Raw TAF
KEWR 210843Z 2109/2212 32018G25KT P6SM SCT030 BKN060
  TEMPO 2109/2113 BKN030
  FM211400 33022G33KT P6SM SCT050
  FM212200 31015G25KT P6SM FEW050
  FM220100 31013G20KT P6SM FEW050
  FM220300 31010KT P6SM SCT150
  FM220800 27006KT P6SM FEW150


Raw METAR
KEWR 210822Z 33015G21KT 10SM -RA FEW022 BKN030 OVC040 09/06 A2966 RMK AO2 RAB18 P0000 T00890056 $
KEWR 210751Z 32014G22KT 10SM FEW016 OVC022 09/06 A2964 RMK AO2 SLP037 T00940056 $
KEWR 210659Z 28012KT 10SM BKN020 OVC130 09/07 A2963 RMK AO2 T00940072 $
KEWR 210651Z 28009KT 10SM SCT020 OVC130 09/07 A2963 RMK AO2 WSHFT 0601 SLP031 T00940072 $
KEWR 210621Z 26011KT 10SM FEW020 BKN100 OVC140 09/07 A2961 RMK AO2 WSHFT 0601 T00940072 $
KEWR 210551Z 00000KT 10SM FEW050 FEW080 OVC130 09/07 A2960 RMK AO2 RAE07 SLP022 P0000 60002 T00940072 10139 20094 58012 $

METAR Board
Radar Display
Forecast Discussion
For situational awareness. Not to be used for flight planning purposes.